Time;durP1;ratioP1;P1;durP2;ratioP2;P2;SDS_P1;SDS_P2;PMS_P1;PMS_P2;Temp;Humidity;BMP_temperature;BMP_pressure;BME280_temperature;BME280_humidity;BME280_pressure;Samples;Min_cycle;Max_cycle;Signal;HPM_P1;HPM_P2
2023/05/24 00:01:41;;;;;;;6.47;4.47;;;9.00;1.00;9.80;94367.00;;;;7395769;19;20465;-73
2023/05/24 00:04:09;;;;;;;7.43;4.30;;;9.00;1.00;9.80;94391.00;;;;7396580;19;20144;-73
2023/05/24 00:06:37;;;;;;;10.05;4.90;;;9.00;1.00;9.80;94353.00;;;;7395291;19;20145;-73
2023/05/24 00:09:17;;;;;;;9.73;4.30;;;9.00;37.70;9.90;94377.00;;;;7395535;19;20175;-73
2023/05/24 00:11:50;;;;;;;7.75;4.32;;;9.00;1.00;9.80;94373.00;;;;7397645;19;20614;-73
2023/05/24 00:14:25;;;;;;;10.00;4.22;;;9.00;2.70;9.70;94363.00;;;;7403590;19;20207;-73
2023/05/24 00:16:59;;;;;;;6.28;4.00;;;9.00;10.00;9.80;94342.00;;;;7402304;19;20611;-73
2023/05/24 00:19:28;;;;;;;8.57;4.25;;;8.90;1.00;9.80;94350.00;;;;7402870;19;20176;-74
2023/05/24 00:21:55;;;;;;;7.78;4.03;;;8.90;10.90;9.90;94364.00;;;;7399574;19;20612;-74
2023/05/24 00:24:28;;;;;;;6.75;4.10;;;8.90;25.70;9.80;94368.00;;;;7403028;19;20629;-74
2023/05/24 00:27:03;;;;;;;9.35;4.38;;;8.90;85.10;9.80;94363.00;;;;7403605;19;20132;-73
2023/05/24 00:29:36;;;;;;;13.05;4.57;;;8.90;53.40;9.70;94374.00;;;;7402904;19;20133;-74
2023/05/24 00:32:10;;;;;;;6.13;4.45;;;8.90;1.00;9.50;94381.00;;;;7402000;19;20474;-73
2023/05/24 00:34:38;;;;;;;9.48;4.43;;;8.90;1.00;9.60;94369.00;;;;7402869;19;20489;-74
2023/05/24 00:37:11;;;;;;;7.43;4.50;;;8.80;1.00;9.70;94359.00;;;;7402988;19;20130;-73
2023/05/24 00:39:45;;;;;;;7.97;4.50;;;8.90;21.10;9.60;94340.00;;;;7403356;19;20135;-74
2023/05/24 00:42:19;;;;;;;7.90;3.93;;;8.80;1.00;9.50;94340.00;;;;7401972;19;20482;-74
2023/05/24 00:44:47;;;;;;;7.57;4.20;;;8.80;1.00;9.60;94345.00;;;;7404073;19;20121;-73
2023/05/24 00:47:21;;;;;;;10.30;4.20;;;8.80;1.00;9.60;94369.00;;;;7402080;19;20172;-74
2023/05/24 00:49:55;;;;;;;5.50;4.28;;;8.80;1.00;9.60;94332.00;;;;7401772;19;20155;-74
2023/05/24 00:52:29;;;;;;;10.82;4.40;;;8.80;1.00;9.40;94372.00;;;;7402093;19;20128;-74
2023/05/24 00:55:03;;;;;;;15.88;4.88;;;8.80;1.00;9.50;94360.00;;;;7401150;19;20608;-73
2023/05/24 00:57:31;;;;;;;13.60;4.97;;;8.70;38.60;9.50;94368.00;;;;7402151;19;20136;-74
2023/05/24 01:00:06;;;;;;;11.10;4.57;;;8.70;6.90;9.40;94358.00;;;;7401262;19;20864;-74
2023/05/24 01:02:48;;;;;;;9.38;4.50;;;8.70;1.00;9.40;94312.00;;;;7394831;19;20192;-73
2023/05/24 01:05:22;;;;;;;8.00;4.70;;;8.70;1.00;9.60;94348.00;;;;7402889;19;20156;-74
2023/05/24 01:08:31;;;;;;;6.63;4.63;;;8.70;1.00;9.50;94360.00;;;;7404058;19;20587;-73
2023/05/24 01:11:25;;;;;;;11.10;4.35;;;8.60;1.00;9.50;94360.00;;;;7402323;19;20493;-73
2023/05/24 01:14:27;;;;;;;9.50;4.87;;;8.60;1.00;9.30;94358.00;;;;7402781;19;20634;-72
2023/05/24 01:17:16;;;;;;;12.30;4.60;;;8.60;1.00;9.20;94367.00;;;;7400713;19;20473;-73
2023/05/24 01:20:07;;;;;;;7.17;3.67;;;8.60;81.20;9.20;94366.00;;;;7403005;19;20141;-74
2023/05/24 01:23:14;;;;;;;10.70;4.70;;;8.60;57.90;9.20;94364.00;;;;7402173;19;20622;-73
2023/05/24 01:26:19;;;;;;;7.40;4.63;;;8.50;52.60;9.20;94352.00;;;;7401608;19;20466;-74
2023/05/24 01:28:54;;;;;;;12.20;4.97;;;8.50;52.40;9.10;94326.00;;;;7401528;19;20619;-74
2023/05/24 01:31:22;;;;;;;9.90;5.17;;;8.50;8.30;9.00;94355.00;;;;7402611;19;20151;-73
2023/05/24 01:33:56;;;;;;;13.03;5.23;;;8.40;1.00;9.10;94349.00;;;;7401768;19;20490;-74
2023/05/24 01:36:23;;;;;;;7.53;4.70;;;8.40;1.00;9.00;94360.00;;;;7403091;19;20137;-73
2023/05/24 01:38:51;;;;;;;8.27;4.95;;;8.30;6.40;8.80;94332.00;;;;7401550;19;20485;-74
2023/05/24 01:41:50;;;;;;;8.40;4.40;;;8.30;1.00;8.90;94350.00;;;;7400323;19;20621;-73
2023/05/24 01:44:37;;;;;;;13.00;5.10;;;8.30;1.00;8.90;94360.00;;;;7402826;19;20129;-74
2023/05/24 01:47:27;;;;;;;12.47;5.37;;;8.30;1.00;8.90;94364.00;;;;7400870;19;20603;-72
2023/05/24 01:50:25;;;;;;;13.75;5.13;;;8.20;1.00;9.10;94361.00;;;;7402562;19;20136;-73
2023/05/24 01:53:07;;;;;;;13.03;4.97;;;8.30;1.00;9.00;94328.00;;;;7402661;19;20129;-74
2023/05/24 01:55:36;;;;;;;11.45;4.93;;;8.30;1.00;9.00;94361.00;;;;7402473;19;20124;-73
2023/05/24 01:58:13;;;;;;;11.60;5.30;;;8.20;1.00;8.90;94365.00;;;;7400854;19;20120;-74
2023/05/24 02:00:42;;;;;;;11.80;4.70;;;8.30;1.00;9.10;94367.00;;;;7399364;19;20172;-73
2023/05/24 02:03:22;;;;;;;10.25;5.32;;;8.30;1.00;9.10;94357.00;;;;7401122;19;20682;-73
2023/05/24 02:05:49;;;;;;;7.90;5.10;;;8.30;1.00;9.00;94348.00;;;;7400688;19;20140;-74
2023/05/24 02:08:24;;;;;;;13.05;5.22;;;8.30;1.00;9.10;94351.00;;;;7400342;19;20140;-72
2023/05/24 02:10:51;;;;;;;9.80;4.72;;;8.30;2.70;9.00;94362.00;;;;7400759;19;20629;-73
2023/05/24 02:13:25;;;;;;;12.52;4.88;;;8.30;1.00;9.00;94349.00;;;;7401106;19;20153;-74
2023/05/24 02:15:53;;;;;;;11.43;4.93;;;8.20;54.20;8.90;94363.00;;;;7399808;19;20144;-73
2023/05/24 02:18:26;;;;;;;9.33;4.97;;;8.20;99.90;8.90;94355.00;;;;7400385;19;20506;-73
2023/05/24 02:20:53;;;;;;;10.77;4.55;;;8.30;13.30;8.90;94365.00;;;;7400285;19;20152;-73
2023/05/24 02:23:28;;;;;;;8.40;4.37;;;8.20;17.10;9.00;94330.00;;;;7399967;19;20153;-74
2023/05/24 02:26:01;;;;;;;9.13;4.53;;;8.20;1.00;9.10;94361.00;;;;7401754;19;20125;-73
2023/05/24 02:28:31;;;;;;;11.43;4.93;;;8.20;1.00;9.00;94346.00;;;;7395331;19;20592;-73
2023/05/24 02:31:05;;;;;;;11.93;5.10;;;8.20;1.00;8.80;94339.00;;;;7398820;19;20153;-73
2023/05/24 02:33:39;;;;;;;11.17;4.83;;;8.10;1.00;8.70;94345.00;;;;7399408;19;20615;-73
2023/05/24 02:36:12;;;;;;;14.57;4.77;;;8.10;3.70;8.70;94356.00;;;;7388044;19;20168;-75
2023/05/24 02:38:40;;;;;;;16.00;4.67;;;8.10;1.00;8.80;94364.00;;;;7399631;19;20129;-73
2023/05/24 02:41:16;;;;;;;9.90;5.10;;;8.00;1.00;8.80;94320.00;;;;7398206;19;20149;-72
2023/05/24 02:43:45;;;;;;;9.07;4.60;;;8.10;1.00;8.90;94368.00;;;;7401432;19;20575;-73
2023/05/24 02:46:19;;;;;;;14.47;4.97;;;8.00;99.90;8.80;94353.00;;;;7398731;19;20566;-73
2023/05/24 02:48:48;;;;;;;16.77;5.40;;;8.00;8.80;8.80;94346.00;;;;7400438;19;20137;-74
2023/05/24 02:51:21;;;;;;;10.73;5.20;;;7.90;25.50;8.80;94355.00;;;;7401349;19;20151;-73
2023/05/24 02:53:49;;;;;;;11.33;5.10;;;7.90;62.60;8.70;94356.00;;;;7401508;19;20175;-73
2023/05/24 02:56:23;;;;;;;19.30;5.47;;;7.90;84.10;8.60;94347.00;;;;7399240;19;20143;-73
2023/05/24 02:58:53;;;;;;;9.75;5.00;;;7.90;99.90;8.50;94347.00;;;;7400580;19;20133;-73
2023/05/24 03:01:34;;;;;;;11.40;4.95;;;7.90;23.60;8.50;94355.00;;;;7398301;19;20262;-73
2023/05/24 03:04:01;;;;;;;12.05;5.63;;;7.90;10.70;8.50;94363.00;;;;7399141;19;20136;-73
2023/05/24 03:06:35;;;;;;;14.60;5.10;;;7.90;12.70;8.50;94358.00;;;;7398270;19;20168;-74
2023/05/24 03:09:02;;;;;;;9.00;4.83;;;7.80;41.80;8.60;94327.00;;;;7398434;19;20136;-73
2023/05/24 03:11:41;;;;;;;11.80;5.00;;;7.90;37.50;8.60;94356.00;;;;7398408;19;20136;-73
2023/05/24 03:14:09;;;;;;;9.13;4.90;;;7.80;47.10;8.50;94355.00;;;;7397811;19;20602;-73
2023/05/24 03:16:45;;;;;;;13.67;4.87;;;7.80;40.00;8.50;94347.00;;;;7399667;19;20133;-75
2023/05/24 03:19:12;;;;;;;12.60;5.57;;;7.80;49.20;8.50;94332.00;;;;7398746;19;20646;-74
2023/05/24 03:21:46;;;;;;;12.13;5.13;;;7.80;40.10;8.50;94349.00;;;;7397836;19;20121;-72
2023/05/24 03:24:20;;;;;;;14.43;5.30;;;7.80;55.60;8.40;94331.00;;;;7398547;19;20144;-73
2023/05/24 03:26:47;;;;;;;14.57;5.80;;;7.70;99.90;8.30;94349.00;;;;7398030;19;20205;-74
2023/05/24 03:29:21;;;;;;;20.03;5.33;;;7.70;99.90;8.30;94342.00;;;;7399946;19;20490;-73
2023/05/24 03:31:48;;;;;;;10.93;5.07;;;7.70;99.90;8.30;94336.00;;;;7397638;19;20145;-73
2023/05/24 03:34:23;;;;;;;10.27;4.87;;;7.70;99.90;8.30;94331.00;;;;7398488;19;20128;-75
2023/05/24 03:36:50;;;;;;;9.07;5.10;;;7.70;99.90;8.30;94340.00;;;;7397265;19;20155;-74
2023/05/24 03:39:23;;;;;;;15.73;5.60;;;7.60;99.90;8.30;94344.00;;;;7399371;19;20139;-73
2023/05/24 03:41:58;;;;;;;15.30;6.03;;;7.60;99.90;8.50;94325.00;;;;7398556;19;20612;-73
2023/05/24 03:44:31;;;;;;;16.43;5.30;;;7.50;99.90;8.30;94346.00;;;;7398507;19;20133;-74
2023/05/24 03:47:06;;;;;;;12.60;4.80;;;7.50;99.90;8.20;94316.00;;;;7397204;19;20139;-74
2023/05/24 03:49:39;;;;;;;16.87;6.17;;;7.50;99.90;8.20;94342.00;;;;7397423;19;20148;-74
2023/05/24 03:52:13;;;;;;;12.17;4.83;;;7.50;99.90;8.20;94347.00;;;;7399639;19;20193;-75
2023/05/24 03:54:48;;;;;;;11.93;4.90;;;7.50;99.90;8.10;94313.00;;;;7397009;19;20153;-75
2023/05/24 03:57:21;;;;;;;16.17;5.83;;;7.50;99.90;8.10;94335.00;;;;7398226;19;20125;-75
2023/05/24 03:59:48;;;;;;;12.03;5.77;;;7.40;99.90;8.10;94316.00;;;;7396970;19;20132;-74
2023/05/24 04:02:29;;;;;;;10.10;5.23;;;7.30;99.90;8.00;94329.00;;;;7394783;19;20176;-72
2023/05/24 04:05:12;;;;;;;11.70;5.63;;;7.30;99.90;8.20;94334.00;;;;7398340;19;20133;-73
2023/05/24 04:07:47;;;;;;;12.00;5.60;;;7.30;99.90;8.00;94320.00;;;;7397246;19;20479;-75
2023/05/24 04:10:21;;;;;;;15.80;5.70;;;7.30;1.00;8.00;94310.00;;;;7398090;19;20164;-74
2023/05/24 04:12:49;;;;;;;11.20;5.27;;;7.30;99.90;8.00;94301.00;;;;7398849;19;20144;-73
2023/05/24 04:15:23;;;;;;;13.20;5.83;;;7.30;99.90;7.90;94327.00;;;;7397948;19;20491;-74
2023/05/24 04:17:56;;;;;;;12.20;5.63;;;7.30;99.90;7.90;94332.00;;;;7398228;19;20160;-74
2023/05/24 04:20:25;;;;;;;9.67;5.47;;;7.30;99.90;8.00;94309.00;;;;7396857;19;20144;-73
2023/05/24 04:23:00;;;;;;;14.17;5.17;;;7.30;99.90;8.00;94309.00;;;;7397992;19;20494;-74
2023/05/24 04:25:41;;;;;;;12.03;5.07;;;7.30;99.90;7.90;94282.00;;;;7396893;19;20622;-73
2023/05/24 04:28:16;;;;;;;19.77;5.40;;;7.40;99.90;8.20;94313.00;;;;7396974;19;20501;-73
2023/05/24 04:30:44;;;;;;;14.23;5.70;;;7.40;99.90;8.20;94293.00;;;;7395931;19;20722;-73
2023/05/24 04:33:18;;;;;;;14.30;6.23;;;7.40;99.90;8.20;94335.00;;;;7397220;19;20598;-74
2023/05/24 04:35:53;;;;;;;11.33;5.00;;;7.40;99.90;8.20;94320.00;;;;7396047;19;20618;-73
2023/05/24 04:38:28;;;;;;;13.17;5.47;;;7.50;99.90;8.30;94335.00;;;;7398206;19;20451;-72
2023/05/24 04:41:02;;;;;;;11.37;5.33;;;7.60;99.90;8.40;94300.00;;;;7397199;19;20139;-73
2023/05/24 04:43:35;;;;;;;11.67;5.23;;;7.60;99.90;8.40;94339.00;;;;7396237;19;20153;-74
2023/05/24 04:46:03;;;;;;;17.13;5.63;;;7.60;99.90;8.40;94328.00;;;;7395958;19;20137;-74
2023/05/24 04:48:36;;;;;;;16.13;5.83;;;7.70;99.90;8.40;94326.00;;;;7395860;19;20204;-75
2023/05/24 04:51:04;;;;;;;9.13;5.13;;;7.80;99.90;8.20;94350.00;;;;7397657;19;20121;-74
2023/05/24 04:53:38;;;;;;;10.07;4.97;;;7.90;99.90;8.50;94349.00;;;;7395253;19;20147;-73
2023/05/24 04:56:05;;;;;;;11.97;5.23;;;7.90;99.90;8.50;94355.00;;;;7394763;19;20224;-73
2023/05/24 04:58:39;;;;;;;15.73;5.47;;;7.90;99.90;8.50;94353.00;;;;7398015;19;20208;-74
2023/05/24 05:01:13;;;;;;;10.50;5.30;;;8.00;99.90;8.70;94320.00;;;;7401415;19;20173;-73
2023/05/24 05:03:53;;;;;;;12.60;5.43;;;8.00;75.80;8.80;94355.00;;;;7399344;19;20156;-73
2023/05/24 05:06:27;;;;;;;8.00;5.47;;;8.00;36.20;8.70;94345.00;;;;7404250;19;20499;-71
2023/05/24 05:09:01;;;;;;;12.57;5.27;;;8.00;1.00;8.80;94340.00;;;;7402879;19;20140;-73
2023/05/24 05:11:36;;;;;;;15.23;5.88;;;8.10;45.20;9.00;94330.00;;;;7402898;19;20611;-74
2023/05/24 05:14:10;;;;;;;13.27;5.30;;;8.10;1.00;8.80;94354.00;;;;7402043;19;20137;-70
2023/05/24 05:16:38;;;;;;;12.97;5.47;;;8.20;13.70;8.90;94365.00;;;;7401701;19;20137;-73
2023/05/24 05:19:12;;;;;;;18.07;5.80;;;8.10;1.00;8.80;94346.00;;;;7402951;19;20167;-72
2023/05/24 05:21:39;;;;;;;15.53;5.63;;;8.10;1.00;8.60;94317.00;;;;7402199;19;20595;-74
2023/05/24 05:24:15;;;;;;;17.90;5.30;;;8.20;1.00;8.80;94336.00;;;;7386919;19;20168;-73
2023/05/24 05:26:48;;;;;;;11.23;5.65;;;8.20;1.00;8.90;94339.00;;;;7379159;19;20535;-72
2023/05/24 05:29:22;;;;;;;12.95;5.80;;;8.10;1.00;8.70;94341.00;;;;7385511;19;20141;-73
2023/05/24 05:31:50;;;;;;;9.33;4.97;;;8.10;1.00;8.50;94359.00;;;;7386212;19;20153;-72
2023/05/24 05:34:24;;;;;;;12.67;5.17;;;8.20;1.00;8.50;94360.00;;;;7385328;19;20499;-74
2023/05/24 05:36:51;;;;;;;11.93;5.03;;;8.20;1.00;8.70;94344.00;;;;7386559;19;20144;-73
2023/05/24 05:39:46;;;;;;;13.50;5.60;;;8.10;1.00;8.90;94353.00;;;;7388003;19;20176;-73
2023/05/24 05:42:13;;;;;;;9.50;5.00;;;8.20;1.00;8.80;94339.00;;;;7387746;19;20136;-73
2023/05/24 05:44:47;;;;;;;16.43;5.60;;;8.20;1.00;8.80;94353.00;;;;7388539;19;20125;-72
2023/05/24 05:47:21;;;;;;;17.10;5.80;;;8.20;1.00;9.00;94347.00;;;;7386586;19;20144;-71
2023/05/24 05:49:55;;;;;;;12.90;5.13;;;8.20;99.90;8.80;94355.00;;;;7387469;19;20152;-73
2023/05/24 05:52:22;;;;;;;12.60;5.93;;;8.30;99.90;8.90;94346.00;;;;7387511;19;20148;-73
2023/05/24 05:54:59;;;;;;;13.83;5.07;;;8.30;99.90;8.80;94323.00;;;;7386696;19;20157;-72
2023/05/24 05:57:34;;;;;;;14.97;5.97;;;8.20;99.90;9.00;94343.00;;;;7387747;19;20125;-71
2023/05/24 06:00:09;;;;;;;15.88;5.45;;;8.30;99.90;9.10;94349.00;;;;7387075;19;20479;-72
2023/05/24 06:02:37;;;;;;;15.00;5.23;;;8.30;99.90;9.20;94343.00;;;;7386864;19;20519;-72
2023/05/24 06:05:18;;;;;;;10.43;5.20;;;8.30;99.90;9.00;94352.00;;;;7386963;19;20144;-72
2023/05/24 06:07:46;;;;;;;11.50;5.20;;;8.40;99.90;9.10;94349.00;;;;7384803;19;20148;-73
2023/05/24 06:10:20;;;;;;;15.10;5.00;;;8.50;99.90;9.20;94333.00;;;;7386534;19;21940;-72
2023/05/24 06:12:54;;;;;;;12.70;5.28;;;8.60;99.90;9.30;94345.00;;;;7387087;19;20144;-75
2023/05/24 06:15:28;;;;;;;10.13;4.55;;;8.60;99.90;9.20;94295.00;;;;7386194;19;20200;-73
2023/05/24 06:17:56;;;;;;;11.05;4.72;;;8.70;99.90;9.30;94348.00;;;;7386535;19;20743;-71
2023/05/24 06:20:30;;;;;;;13.38;4.60;;;8.70;99.90;9.30;94314.00;;;;7386994;19;20494;-73
2023/05/24 06:22:58;;;;;;;12.25;5.28;;;8.70;99.90;9.40;94343.00;;;;7386683;19;20178;-72
2023/05/24 06:25:33;;;;;;;12.20;4.72;;;8.70;99.90;9.10;94328.00;;;;7386708;19;20511;-72
2023/05/24 06:28:08;;;;;;;13.68;5.35;;;8.80;99.90;9.10;94347.00;;;;7386354;19;20204;-72
2023/05/24 06:30:36;;;;;;;11.32;5.00;;;8.80;99.90;9.50;94336.00;;;;7387155;19;20514;-73
2023/05/24 06:33:11;;;;;;;11.95;4.97;;;8.90;99.90;9.60;94336.00;;;;7384025;19;20609;-71
2023/05/24 06:35:38;;;;;;;9.77;4.75;;;9.00;99.90;9.60;94346.00;;;;7386497;19;20145;-72
2023/05/24 06:38:13;;;;;;;16.60;5.00;;;9.10;99.90;9.70;94335.00;;;;7385410;19;20128;-71
2023/05/24 06:40:47;;;;;;;13.30;4.82;;;9.20;99.90;9.80;94330.00;;;;7386741;19;20220;-74
2023/05/24 06:43:15;;;;;;;18.52;4.70;;;9.30;98.10;9.90;94355.00;;;;7388496;19;20133;-72
2023/05/24 06:45:49;;;;;;;12.68;5.00;;;9.40;1.00;9.80;94349.00;;;;7386007;19;20124;-72
2023/05/24 06:48:23;;;;;;;12.82;4.68;;;9.50;1.00;10.10;94345.00;;;;7385939;19;20144;-73
2023/05/24 06:50:50;;;;;;;12.98;4.43;;;9.50;1.00;10.20;94355.00;;;;7385597;19;20152;-72
2023/05/24 06:53:26;;;;;;;12.90;4.72;;;9.70;1.00;10.30;94337.00;;;;7385176;19;20152;-72
2023/05/24 06:56:00;;;;;;;12.77;5.32;;;9.70;1.00;10.40;94347.00;;;;7384396;19;20509;-72
2023/05/24 06:58:35;;;;;;;10.50;4.60;;;9.90;1.00;10.60;94315.00;;;;7384156;19;20152;-72
2023/05/24 07:01:10;;;;;;;10.95;4.50;;;10.00;1.00;10.90;94359.00;;;;7381949;19;20225;-72
2023/05/24 07:03:50;;;;;;;11.07;4.22;;;10.20;1.00;11.10;94357.00;;;;7384799;19;20133;-71
2023/05/24 07:06:26;;;;;;;17.48;4.32;;;10.40;1.00;11.20;94370.00;;;;7383514;19;20144;-72
2023/05/24 07:09:03;;;;;;;15.05;4.45;;;10.50;1.00;10.90;94362.00;;;;7383253;19;20156;-72
2023/05/24 07:11:31;;;;;;;10.07;4.55;;;10.60;1.00;11.10;94354.00;;;;7382985;19;20154;-72
2023/05/24 07:14:05;;;;;;;15.25;4.40;;;10.70;1.00;11.20;94391.00;;;;7384146;19;20144;-71
2023/05/24 07:16:33;;;;;;;12.40;4.53;;;10.60;1.00;11.20;94349.00;;;;7388087;19;20133;-71
2023/05/24 07:19:07;;;;;;;11.20;3.88;;;10.60;1.00;11.10;94368.00;;;;7376820;19;20180;-73
2023/05/24 07:21:40;;;;;;;13.00;4.05;;;10.60;1.00;10.90;94358.00;;;;7378958;19;20587;-72
2023/05/24 07:24:15;;;;;;;11.73;4.60;;;10.60;1.00;10.80;94366.00;;;;7382329;19;20128;-72
2023/05/24 07:26:52;;;;;;;8.63;4.43;;;10.50;1.00;10.90;94367.00;;;;7382136;19;20453;-72
2023/05/24 07:29:26;;;;;;;8.40;4.45;;;10.40;1.00;10.60;94388.00;;;;7380447;19;20498;-72
2023/05/24 07:32:00;;;;;;;11.73;5.15;;;10.40;1.00;10.80;94377.00;;;;7382002;19;20159;-71
2023/05/24 07:34:34;;;;;;;13.63;4.50;;;10.20;1.00;10.60;94390.00;;;;7384266;19;20572;-70
2023/05/24 07:37:01;;;;;;;18.23;4.55;;;10.10;1.00;10.90;94396.00;;;;7383018;19;20128;-71
2023/05/24 07:39:35;;;;;;;11.50;4.40;;;10.00;1.00;10.80;94385.00;;;;7382494;19;20610;-71
2023/05/24 07:42:02;;;;;;;8.85;3.92;;;10.00;1.00;10.50;94413.00;;;;7381714;19;20152;-70
2023/05/24 07:44:36;;;;;;;10.52;4.70;;;9.90;1.00;10.10;94407.00;;;;7383470;19;20125;-72
2023/05/24 07:47:03;;;;;;;12.43;4.70;;;9.90;1.00;9.90;94414.00;;;;7383527;19;20470;-72
2023/05/24 07:49:36;;;;;;;20.13;4.72;;;9.80;1.00;9.80;94420.00;;;;7382160;19;20153;-72
2023/05/24 07:52:10;;;;;;;17.85;4.38;;;9.60;1.00;10.00;94383.00;;;;7382057;19;20152;-73
2023/05/24 07:54:38;;;;;;;12.60;5.05;;;9.50;1.00;9.80;94407.00;;;;7380432;19;20140;-74
2023/05/24 07:57:12;;;;;;;9.90;4.35;;;9.50;1.00;9.90;94376.00;;;;7381515;19;20212;-72
2023/05/24 07:59:39;;;;;;;13.75;4.93;;;9.40;1.00;10.00;94381.00;;;;7382905;19;20136;-72
2023/05/24 08:02:26;;;;;;;12.02;5.03;;;9.40;1.00;9.50;94387.00;;;;7379789;19;20184;-72
2023/05/24 08:05:00;;;;;;;11.32;4.68;;;9.30;1.00;10.00;94361.00;;;;7382837;19;20153;-72
2023/05/24 08:07:34;;;;;;;11.77;5.00;;;9.40;35.90;10.20;94395.00;;;;7380856;19;20581;-73
2023/05/24 08:10:01;;;;;;;10.52;4.80;;;9.50;1.00;10.70;94405.00;;;;7381130;19;20159;-72
2023/05/24 08:12:35;;;;;;;16.33;4.90;;;9.60;1.00;10.60;94408.00;;;;7380984;19;20148;-71
2023/05/24 08:15:09;;;;;;;12.95;5.03;;;9.80;1.00;10.70;94410.00;;;;7381493;19;20595;-72
2023/05/24 08:17:40;;;;;;;12.85;5.38;;;10.10;1.00;11.30;94413.00;;;;7380428;19;20148;-71
2023/05/24 08:20:15;;;;;;;13.95;4.80;;;10.40;1.00;11.20;94385.00;;;;7380653;19;20128;-73
2023/05/24 08:22:43;;;;;;;14.60;4.97;;;10.60;1.00;11.00;94432.00;;;;7380671;19;20153;-71
2023/05/24 08:25:17;;;;;;;16.25;5.60;;;10.70;1.00;10.90;94413.00;;;;7380952;19;20203;-73
2023/05/24 08:27:51;;;;;;;12.65;5.03;;;10.60;1.00;10.80;94421.00;;;;7381354;19;20137;-72
2023/05/24 08:30:25;;;;;;;10.23;4.70;;;10.60;1.00;11.30;94408.00;;;;7381024;19;20153;-74
2023/05/24 08:32:58;;;;;;;11.27;4.88;;;10.70;1.00;11.20;94409.00;;;;7384504;19;20137;-72
2023/05/24 08:35:34;;;;;;;13.82;4.85;;;10.80;1.00;11.10;94399.00;;;;7386989;19;20151;-71
2023/05/24 08:38:08;;;;;;;12.48;4.97;;;10.80;1.00;11.20;94421.00;;;;7386523;19;20176;-73
2023/05/24 08:40:42;;;;;;;8.93;4.80;;;10.90;1.00;11.40;94375.00;;;;7388438;19;20133;-73
2023/05/24 08:43:16;;;;;;;13.82;5.03;;;11.00;1.00;11.40;94410.00;;;;7387662;19;20150;-72
2023/05/24 08:45:44;;;;;;;13.75;5.30;;;11.00;99.90;11.40;94411.00;;;;7385102;19;20155;-73
2023/05/24 08:48:19;;;;;;;11.43;4.90;;;11.00;99.90;11.30;94437.00;;;;7388142;19;20587;-71
2023/05/24 08:50:47;;;;;;;10.18;5.00;;;11.00;99.90;11.20;94440.00;;;;7386724;19;20484;-73
2023/05/24 08:53:22;;;;;;;12.25;5.07;;;10.90;99.90;10.90;94441.00;;;;7388113;19;20133;-70
2023/05/24 08:55:53;;;;;;;11.70;4.75;;;10.90;99.90;10.70;94435.00;;;;7388204;19;20611;-71
2023/05/24 08:58:29;;;;;;;10.23;4.68;;;10.70;99.90;11.00;94436.00;;;;7387856;19;20132;-71
2023/05/24 09:01:05;;;;;;;13.80;5.53;;;10.60;99.90;10.80;94446.00;;;;7387437;19;20208;-72
2023/05/24 09:03:47;;;;;;;15.00;6.00;;;10.50;99.90;11.10;94401.00;;;;7386338;19;20171;-73
2023/05/24 09:06:17;;;;;;;13.98;5.25;;;10.40;99.90;11.00;94434.00;;;;7386240;19;20184;-73
2023/05/24 09:08:52;;;;;;;17.55;5.63;;;10.40;99.90;11.00;94433.00;;;;7386552;19;20647;-71
2023/05/24 09:11:21;;;;;;;10.57;4.90;;;10.60;99.90;11.10;94440.00;;;;7388122;19;20439;-73
2023/05/24 09:13:56;;;;;;;13.07;5.60;;;10.70;99.90;11.60;94429.00;;;;7386504;19;20502;-73
2023/05/24 09:16:30;;;;;;;19.33;5.35;;;10.90;99.90;11.90;94429.00;;;;7386942;19;20148;-72
2023/05/24 09:19:04;;;;;;;12.15;4.95;;;11.00;99.90;11.80;94443.00;;;;7386301;19;20173;-72
2023/05/24 09:21:31;;;;;;;11.25;5.10;;;11.10;99.90;11.80;94439.00;;;;7385694;19;20153;-71
2023/05/24 09:24:11;;;;;;;11.85;5.38;;;11.10;99.90;11.80;94427.00;;;;7386434;19;20159;-71
2023/05/24 09:26:38;;;;;;;12.95;5.25;;;11.20;99.90;11.80;94438.00;;;;7388019;19;20581;-71
2023/05/24 09:29:12;;;;;;;13.13;5.38;;;11.30;99.90;11.90;94434.00;;;;7388183;19;20140;-72
2023/05/24 09:31:39;;;;;;;12.45;5.30;;;11.40;99.90;11.90;94436.00;;;;7386685;19;23235;-72
2023/05/24 09:34:15;;;;;;;19.20;5.38;;;11.50;99.90;11.70;94440.00;;;;7386767;19;20212;-72
2023/05/24 09:36:47;;;;;;;10.75;4.68;;;11.40;99.90;11.60;94436.00;;;;7386739;19;20516;-73
2023/05/24 09:39:21;;;;;;;14.98;5.32;;;11.40;99.90;11.50;94419.00;;;;7385709;19;20128;-73
2023/05/24 09:41:55;;;;;;;13.90;5.00;;;11.30;99.90;11.80;94439.00;;;;7387746;19;20591;-71
2023/05/24 09:44:30;;;;;;;12.98;5.07;;;11.20;99.90;11.70;94446.00;;;;7386795;19;20476;-72
2023/05/24 09:47:06;;;;;;;10.45;4.95;;;11.20;99.90;11.80;94425.00;;;;7388635;19;20611;-73
2023/05/24 09:49:40;;;;;;;13.55;4.47;;;11.30;99.90;11.70;94435.00;;;;7386693;19;20135;-72
2023/05/24 09:52:13;;;;;;;11.45;4.68;;;11.30;99.90;12.00;94419.00;;;;7387790;19;20129;-73
2023/05/24 09:54:47;;;;;;;14.82;5.03;;;11.50;99.90;12.40;94433.00;;;;7386670;19;20173;-73
2023/05/24 09:57:21;;;;;;;11.32;5.05;;;11.70;99.90;12.70;94410.00;;;;7385559;19;20128;-71
2023/05/24 09:59:56;;;;;;;12.88;4.60;;;11.90;99.90;12.90;94427.00;;;;7386176;19;20148;-72
2023/05/24 10:02:37;;;;;;;12.65;5.40;;;12.10;99.90;12.80;94414.00;;;;7385663;19;20623;-73
2023/05/24 10:05:25;;;;;;;12.02;4.82;;;12.20;99.90;12.80;94421.00;;;;7385823;19;20510;-71
2023/05/24 10:08:00;;;;;;;12.32;4.63;;;12.40;99.90;12.60;94413.00;;;;7387084;19;20129;-72
2023/05/24 10:10:34;;;;;;;12.07;4.10;;;12.40;99.90;12.10;94428.00;;;;7384212;19;20178;-72
2023/05/24 10:13:02;;;;;;;8.43;3.95;;;12.20;4.80;12.00;94442.00;;;;7386613;19;20665;-72
2023/05/24 10:15:35;;;;;;;12.15;4.60;;;11.90;12.80;12.10;94449.00;;;;7385870;19;20168;-71
2023/05/24 10:18:07;;;;;;;16.80;5.35;;;11.80;88.60;11.90;94436.00;;;;7385426;19;20151;-72
2023/05/24 10:20:41;;;;;;;14.13;5.40;;;11.60;99.90;12.30;94413.00;;;;7387314;19;20124;-72
2023/05/24 10:23:14;;;;;;;12.20;5.00;;;11.80;99.90;12.60;94439.00;;;;7383683;19;20136;-73
2023/05/24 10:26:02;;;;;;;9.88;4.70;;;11.80;89.90;13.20;94433.00;;;;7385743;19;20152;-73
2023/05/24 10:28:44;;;;;;;15.80;4.60;;;12.00;1.00;14.10;94432.00;;;;7385916;19;20152;-73
2023/05/24 10:31:36;;;;;;;11.50;4.60;;;12.50;1.00;14.30;94404.00;;;;7383305;19;20631;-72
2023/05/24 10:34:11;;;;;;;14.07;4.28;;;13.00;1.00;14.40;94410.00;;;;7385592;19;20153;-71
2023/05/24 10:36:45;;;;;;;11.23;4.70;;;13.40;1.00;15.60;94380.00;;;;7384913;19;20158;-73
2023/05/24 10:39:12;;;;;;;10.65;4.55;;;14.00;1.00;16.50;94394.00;;;;7383157;19;20153;-71
2023/05/24 10:41:46;;;;;;;10.15;4.25;;;14.70;1.00;16.30;94391.00;;;;7384266;19;20184;-70
2023/05/24 10:44:21;;;;;;;13.20;4.20;;;15.40;1.00;16.80;94396.00;;;;7386913;19;20128;-73
2023/05/24 10:47:12;;;;;;;13.10;4.43;;;15.40;1.00;16.30;94395.00;;;;7386310;19;20135;-72
2023/05/24 10:49:56;;;;;;;11.85;4.30;;;15.40;1.00;15.30;94395.00;;;;7384553;19;20168;-72
2023/05/24 10:52:43;;;;;;;9.40;4.25;;;15.30;1.00;15.30;94389.00;;;;7386477;19;20223;-71
2023/05/24 10:55:11;;;;;;;12.70;3.80;;;15.00;1.00;15.10;94385.00;;;;7384612;19;20160;-71
2023/05/24 10:57:46;;;;;;;10.38;4.18;;;15.00;1.00;15.60;94376.00;;;;7381318;19;20172;-73
2023/05/24 11:00:21;;;;;;;12.00;3.90;;;15.40;1.00;17.90;94351.00;;;;7385856;19;20472;-72
2023/05/24 11:03:09;;;;;;;11.00;4.63;;;16.10;1.00;18.50;94343.00;;;;7383877;19;20183;-72
2023/05/24 11:05:48;;;;;;;9.30;3.90;;;17.10;1.00;20.40;94338.00;;;;7384530;19;20152;-71
2023/05/24 11:08:34;;;;;;;8.75;3.83;;;17.90;99.90;20.80;94316.00;;;;7386396;19;20140;-72
2023/05/24 11:11:10;;;;;;;9.30;4.50;;;19.00;99.90;22.00;94328.00;;;;7385887;19;20125;-73
2023/05/24 11:13:59;;;;;;;10.50;4.40;;;20.00;99.90;22.10;94319.00;;;;7384477;19;20153;-73
2023/05/24 11:16:36;;;;;;;8.70;4.20;;;21.40;99.90;22.30;94339.00;;;;7385826;19;20129;-73
2023/05/24 11:19:43;;;;;;;14.82;4.22;;;21.90;99.90;21.90;94349.00;;;;7381485;19;20217;-72
2023/05/24 11:22:21;;;;;;;9.68;3.92;;;21.80;99.90;20.80;94321.00;;;;7382984;19;20128;-73
2023/05/24 11:24:51;;;;;;;10.45;4.20;;;21.40;99.90;21.00;94357.00;;;;7381718;19;20121;-75
2023/05/24 11:27:30;;;;;;;9.52;4.13;;;20.70;99.90;20.30;94357.00;;;;7383736;19;20695;-72
2023/05/24 11:30:08;;;;;;;8.45;3.80;;;20.30;99.90;20.80;94353.00;;;;7384452;19;20720;-75
2023/05/24 11:32:39;;;;;;;10.73;4.07;;;19.90;99.90;20.70;94376.00;;;;7383969;19;20603;-72
2023/05/24 11:35:14;;;;;;;8.13;3.88;;;19.80;99.90;19.50;94346.00;;;;7382245;19;20137;-72